Time;durP1;ratioP1;P1;durP2;ratioP2;P2;SDS_P1;SDS_P2;PMS_P1;PMS_P2;Temp;Humidity;BMP_temperature;BMP_pressure;BME280_temperature;BME280_humidity;BME280_pressure;Samples;Min_cycle;Max_cycle;Signal;HPM_P1;HPM_P2
2023/01/12 00:04:15;;;;;;;14.43;2.80;;;;;;;8.08;59.04;99826.44;10280981;28;20047;-65
2023/01/12 00:09:17;;;;;;;16.67;3.10;;;;;;;8.20;58.96;99815.41;10263970;28;20645;-66
2023/01/12 00:14:18;;;;;;;14.77;2.70;;;;;;;8.20;58.91;99799.78;10271642;28;20057;-66
2023/01/12 00:19:22;;;;;;;12.68;2.70;;;;;;;8.20;58.87;99798.00;10266161;28;20054;-66
2023/01/12 00:24:33;;;;;;;15.65;2.70;;;;;;;8.30;58.63;99787.97;10266929;28;20058;-66
2023/01/12 00:29:36;;;;;;;13.82;3.05;;;;;;;8.31;58.73;99789.63;10267989;28;20042;-65
2023/01/12 00:34:37;;;;;;;12.02;2.92;;;;;;;8.28;58.76;99776.78;10268350;28;20043;-66
2023/01/12 00:39:39;;;;;;;14.20;3.10;;;;;;;8.22;58.85;99775.31;10270408;28;20395;-66
2023/01/12 00:50:06;;;;;;;8.82;2.50;;;;;;;8.37;58.83;99768.47;10270876;28;20058;-65
2023/01/12 00:55:08;;;;;;;19.90;3.03;;;;;;;8.32;58.75;99778.31;10274438;28;20070;-65
2023/01/12 01:00:10;;;;;;;17.95;2.90;;;;;;;8.31;58.66;99777.47;10265546;28;20261;-66
2023/01/12 01:05:12;;;;;;;12.48;2.67;;;;;;;8.44;58.59;99769.84;10283457;28;20050;-66
2023/01/12 01:10:15;;;;;;;12.77;2.55;;;;;;;8.53;58.45;99766.72;10267634;28;20062;-66
2023/01/12 01:15:17;;;;;;;11.30;2.65;;;;;;;8.44;58.42;99765.47;10271072;28;20631;-66
2023/01/12 01:20:18;;;;;;;10.60;2.20;;;;;;;8.48;58.43;99772.19;10267378;28;20047;-66
2023/01/12 01:25:20;;;;;;;16.67;2.70;;;;;;;8.56;58.25;99764.81;10260956;28;20398;-66
2023/01/12 01:30:22;;;;;;;15.18;2.67;;;;;;;8.58;58.38;99759.50;10262455;28;20069;-65
2023/01/12 01:35:23;;;;;;;11.23;2.30;;;;;;;8.54;58.39;99760.59;10266471;28;20057;-65
2023/01/12 01:40:25;;;;;;;11.57;2.83;;;;;;;8.43;58.62;99762.91;10263228;28;20050;-65
2023/01/12 01:45:26;;;;;;;11.15;2.28;;;;;;;8.42;58.63;99763.88;10270268;28;20090;-65
2023/01/12 01:50:36;;;;;;;12.30;2.47;;;;;;;8.47;58.37;99759.22;10273050;28;20049;-66
2023/01/12 01:55:48;;;;;;;10.95;2.40;;;;;;;8.50;58.56;99746.91;10268913;28;20513;-65
2023/01/12 02:00:51;;;;;;;10.63;2.15;;;;;;;8.43;58.66;99755.09;10269731;28;20050;-65
2023/01/12 02:05:54;;;;;;;10.52;2.28;;;;;;;8.51;58.66;99755.53;10264676;28;20046;-66
2023/01/12 02:10:57;;;;;;;9.30;2.22;;;;;;;8.54;58.54;99737.97;10261773;28;20045;-65
2023/01/12 02:16:19;;;;;;;9.27;2.30;;;;;;;8.45;58.72;99735.88;10267734;28;20085;-66
2023/01/12 02:21:30;;;;;;;8.70;2.45;;;;;;;8.45;58.84;99720.22;10271858;28;20140;-66
2023/01/12 02:26:49;;;;;;;9.80;2.10;;;;;;;8.42;58.84;99728.22;10261042;28;20049;-65
2023/01/12 02:32:15;;;;;;;11.40;2.70;;;;;;;8.32;59.04;99729.66;10263895;28;20509;-65
2023/01/12 02:37:24;;;;;;;10.38;2.53;;;;;;;8.37;59.13;99708.53;10260180;28;20069;-66
2023/01/12 02:42:53;;;;;;;10.65;2.55;;;;;;;8.39;59.35;99709.28;10264212;28;20046;-66
2023/01/12 02:48:13;;;;;;;12.65;2.50;;;;;;;8.33;59.56;99689.63;10272027;28;20046;-66
2023/01/12 02:53:23;;;;;;;13.13;2.65;;;;;;;8.30;59.77;99702.84;10261342;28;20054;-66
2023/01/12 02:58:27;;;;;;;8.95;2.70;;;;;;;8.35;59.77;99684.31;10260542;28;20056;-66
2023/01/12 03:03:30;;;;;;;15.07;2.38;;;;;;;8.32;59.92;99698.38;10291847;28;20077;-66
2023/01/12 03:08:34;;;;;;;9.85;2.50;;;;;;;8.33;60.09;99701.81;10268223;28;20124;-65
2023/01/12 03:13:38;;;;;;;12.50;2.80;;;;;;;8.42;59.75;99702.16;10270026;28;20069;-66
2023/01/12 03:18:57;;;;;;;9.43;2.45;;;;;;;8.53;59.56;99704.16;10280275;28;20052;-65
2023/01/12 03:24:25;;;;;;;13.32;2.75;;;;;;;8.36;59.76;99696.44;10271345;28;20392;-65
2023/01/12 03:29:33;;;;;;;9.85;2.28;;;;;;;8.43;59.87;99679.53;10276840;28;20054;-65
2023/01/12 03:34:36;;;;;;;12.82;2.78;;;;;;;8.50;59.79;99668.72;10270662;28;20069;-66
2023/01/12 03:40:03;;;;;;;11.50;2.30;;;;;;;8.45;59.66;99667.25;10267372;28;20513;-65
2023/01/12 03:45:27;;;;;;;11.38;2.60;;;;;;;8.44;59.52;99671.66;10292207;28;20062;-65
2023/01/12 03:50:45;;;;;;;8.45;2.22;;;;;;;8.43;59.42;99671.72;10280145;28;20082;-65
2023/01/12 03:55:50;;;;;;;11.77;2.30;;;;;;;8.44;59.62;99661.22;10273570;28;20346;-65
2023/01/12 04:00:52;;;;;;;9.57;2.20;;;;;;;8.60;59.51;99659.44;10272024;28;21857;-66
2023/01/12 04:05:54;;;;;;;12.60;2.70;;;;;;;8.58;59.60;99652.63;10269884;28;20057;-65
2023/01/12 04:10:55;;;;;;;8.57;2.30;;;;;;;8.48;59.75;99646.25;10267143;28;20042;-65
2023/01/12 04:15:57;;;;;;;13.13;2.50;;;;;;;8.58;59.38;99640.44;10273787;28;20058;-65
2023/01/12 04:20:59;;;;;;;10.50;2.28;;;;;;;8.64;59.46;99626.22;10266784;28;20055;-66
2023/01/12 04:26:01;;;;;;;10.02;1.90;;;;;;;8.68;59.10;99612.94;10279830;28;20053;-65
2023/01/12 04:31:03;;;;;;;11.13;2.72;;;;;;;8.67;59.30;99624.28;10269436;28;20073;-65
2023/01/12 04:36:04;;;;;;;9.55;1.98;;;;;;;8.58;59.45;99624.81;10267847;28;20061;-65
2023/01/12 04:41:07;;;;;;;8.75;1.88;;;;;;;8.61;59.38;99629.00;10268780;28;20051;-65
2023/01/12 04:46:09;;;;;;;6.68;1.75;;;;;;;8.71;59.35;99615.34;10274083;28;20060;-66
2023/01/12 04:51:11;;;;;;;11.02;2.47;;;;;;;8.70;59.34;99608.47;10269723;28;20046;-65
2023/01/12 04:56:13;;;;;;;6.13;1.80;;;;;;;8.65;59.55;99604.41;10269750;28;20054;-65
2023/01/12 05:01:17;;;;;;;9.60;2.17;;;;;;;8.70;59.55;99581.56;10277487;28;20046;-66
2023/01/12 05:06:19;;;;;;;6.32;1.80;;;;;;;8.66;59.73;99573.06;10274819;28;20051;-66
2023/01/12 05:11:24;;;;;;;9.63;1.92;;;;;;;8.70;59.59;99565.91;10275937;28;20050;-65
2023/01/12 05:16:26;;;;;;;8.35;1.90;;;;;;;8.75;59.46;99558.69;10270755;28;20410;-66
2023/01/12 05:21:28;;;;;;;6.32;1.60;;;;;;;8.65;59.79;99552.28;10279042;28;20052;-66
2023/01/12 05:26:30;;;;;;;5.47;1.88;;;;;;;8.61;59.95;99549.03;10270882;28;20046;-65
2023/01/12 05:31:33;;;;;;;9.35;1.90;;;;;;;8.62;60.05;99552.47;10266564;28;20671;-66
2023/01/12 05:36:35;;;;;;;8.43;1.85;;;;;;;8.57;60.11;99539.72;10275519;28;20058;-66
2023/01/12 05:43:48;;;;;;;5.68;1.40;;;;;;;8.53;60.14;99533.00;10266538;28;20499;-66
2023/01/12 05:46:58;;;;;;;5.82;1.52;;;;;;;8.58;60.06;99528.38;10280995;28;20068;-66
2023/01/12 05:52:00;;;;;;;11.35;1.83;;;;;;;8.65;60.05;99510.59;10268804;28;20050;-66
2023/01/12 05:57:02;;;;;;;7.70;2.92;;;;;;;8.71;60.01;99510.22;10274480;28;20284;-65
2023/01/12 06:02:03;;;;;;;8.40;2.17;;;;;;;8.65;60.56;99513.19;10265608;28;20716;-65
2023/01/12 06:07:05;;;;;;;6.45;2.15;;;;;;;8.59;61.34;99498.75;10267687;28;20053;-66
2023/01/12 06:17:30;;;;;;;6.22;1.73;;;;;;;8.39;62.96;99486.03;10265981;28;20514;-66
2023/01/12 06:22:32;;;;;;;5.82;1.50;;;;;;;8.44;62.98;99477.97;10265279;28;20486;-66
2023/01/12 06:27:34;;;;;;;6.25;1.52;;;;;;;8.39;63.15;99472.16;10273351;28;20050;-66
2023/01/12 06:32:37;;;;;;;9.15;1.75;;;;;;;8.28;63.60;99478.00;10266355;28;20101;-66
2023/01/12 06:37:39;;;;;;;4.25;1.50;;;;;;;8.23;63.92;99482.66;10262360;28;20068;-65
2023/01/12 06:42:40;;;;;;;4.32;1.40;;;;;;;8.30;63.70;99467.50;10263840;28;20058;-66
2023/01/12 06:47:44;;;;;;;6.60;1.48;;;;;;;8.28;64.00;99457.16;10269424;28;20053;-66
2023/01/12 06:52:46;;;;;;;8.43;1.80;;;;;;;8.19;64.56;99449.03;10286989;28;20051;-66
2023/01/12 06:57:48;;;;;;;8.25;1.50;;;;;;;8.13;64.98;99450.25;10269674;28;20214;-66
2023/01/12 07:02:50;;;;;;;9.68;1.95;;;;;;;8.08;65.54;99452.22;10267236;28;20050;-66
2023/01/12 07:07:57;;;;;;;7.28;1.98;;;;;;;8.11;65.50;99451.25;10281903;28;20046;-66
2023/01/12 07:12:59;;;;;;;7.80;1.70;;;;;;;7.93;65.74;99443.53;10279006;28;20527;-66
2023/01/12 07:18:01;;;;;;;9.02;1.80;;;;;;;7.98;65.79;99441.50;10268342;28;20046;-66
2023/01/12 07:23:04;;;;;;;6.47;1.85;;;;;;;7.96;66.31;99448.56;10269277;28;20541;-66
2023/01/12 07:28:07;;;;;;;7.93;1.90;;;;;;;7.96;66.46;99447.72;10260315;28;20054;-66
2023/01/12 07:33:11;;;;;;;9.13;1.90;;;;;;;7.95;66.29;99441.69;10259462;28;20055;-66
2023/01/12 07:38:13;;;;;;;7.30;1.65;;;;;;;7.86;66.78;99444.78;10255786;28;20054;-66
2023/01/12 07:43:16;;;;;;;7.78;1.67;;;;;;;7.84;66.89;99433.63;10288101;28;20413;-66
2023/01/12 07:48:20;;;;;;;7.25;1.70;;;;;;;7.90;66.72;99438.50;10280290;28;20046;-66
2023/01/12 07:53:22;;;;;;;7.53;2.00;;;;;;;7.86;66.88;99437.00;10271552;28;20130;-65
2023/01/12 07:58:26;;;;;;;7.65;1.65;;;;;;;7.94;66.51;99431.34;10289346;28;20394;-66
2023/01/12 08:03:28;;;;;;;11.35;1.90;;;;;;;8.08;66.46;99434.00;10275476;28;20074;-66
2023/01/12 08:08:29;;;;;;;6.57;1.60;;;;;;;7.98;66.76;99419.81;10276142;28;20050;-66
2023/01/12 08:13:32;;;;;;;8.80;2.00;;;;;;;8.02;66.83;99422.16;10275460;28;20043;-66
2023/01/12 08:18:44;;;;;;;9.27;1.75;;;;;;;8.09;66.84;99421.81;10285675;28;20514;-66
2023/01/12 08:23:52;;;;;;;8.82;3.00;;;;;;;8.10;66.55;99434.78;10310737;28;20057;-65
2023/01/12 08:29:32;;;;;;;7.82;1.70;;;;;;;8.05;66.66;99436.78;10306195;28;20046;-66
2023/01/12 08:34:35;;;;;;;8.43;1.80;;;;;;;8.23;66.26;99438.38;10308941;28;20054;-65
2023/01/12 08:39:37;;;;;;;14.50;2.00;;;;;;;8.23;66.44;99437.50;10308303;28;20130;-65
2023/01/12 08:44:39;;;;;;;10.93;1.88;;;;;;;8.23;66.45;99425.34;10296719;28;20062;-66
2023/01/12 08:49:41;;;;;;;10.93;1.98;;;;;;;8.26;66.83;99445.16;10289579;28;20057;-66
2023/01/12 08:54:42;;;;;;;5.75;1.75;;;;;;;8.39;66.74;99440.91;10308568;28;20050;-65
2023/01/12 08:59:44;;;;;;;9.68;1.90;;;;;;;8.41;66.84;99439.03;10295951;28;20061;-65
2023/01/12 09:04:46;;;;;;;7.68;1.80;;;;;;;8.33;67.33;99449.94;10306150;28;20938;-66
2023/01/12 09:09:47;;;;;;;7.80;1.80;;;;;;;8.42;67.24;99436.38;10306872;28;20058;-65
2023/01/12 09:14:49;;;;;;;5.07;1.40;;;;;;;8.36;67.45;99443.69;10276728;28;20751;-65
2023/01/12 09:19:50;;;;;;;10.77;2.08;;;;;;;8.43;67.65;99434.59;10269449;28;20403;-65
2023/01/12 09:24:52;;;;;;;6.70;1.67;;;;;;;8.41;67.70;99439.03;10282826;28;20046;-66
2023/01/12 09:29:54;;;;;;;7.22;1.70;;;;;;;8.44;67.47;99441.50;10279422;28;20051;-66
2023/01/12 09:34:58;;;;;;;5.50;1.48;;;;;;;8.64;66.95;99455.03;10306007;28;20050;-65
2023/01/12 09:40:00;;;;;;;4.30;1.13;;;;;;;8.59;67.09;99457.06;10282344;28;20054;-65
2023/01/12 09:50:39;;;;;;;4.75;1.10;;;;;;;8.80;66.33;99452.34;10266416;28;20140;-66
2023/01/12 09:55:54;;;;;;;5.60;1.35;;;;;;;8.81;66.04;99464.44;10304063;28;20054;-66
2023/01/12 10:00:58;;;;;;;5.43;1.15;;;;;;;8.89;66.17;99462.22;10298781;28;20517;-65
2023/01/12 10:06:00;;;;;;;5.13;1.50;;;;;;;9.01;65.89;99460.63;10266923;28;20047;-66
2023/01/12 10:11:13;;;;;;;5.85;1.40;;;;;;;9.05;65.47;99455.16;10287084;28;20709;-65
2023/01/12 10:16:34;;;;;;;6.75;1.90;;;;;;;9.03;65.41;99457.00;10286252;28;20125;-66
2023/01/12 10:21:36;;;;;;;3.03;1.20;;;;;;;9.06;65.94;99458.56;10284609;28;20109;-65
2023/01/12 10:26:44;;;;;;;4.93;1.40;;;;;;;9.22;65.23;99454.13;10267862;28;20054;-65
2023/01/12 10:31:46;;;;;;;3.92;1.30;;;;;;;9.30;64.85;99446.66;10266496;28;20574;-66
2023/01/12 10:36:49;;;;;;;5.47;1.40;;;;;;;9.29;65.06;99445.81;10297432;28;20547;-66
2023/01/12 10:43:17;;;;;;;4.50;1.30;;;;;;;9.17;65.61;99443.09;10297280;28;20054;-66
2023/01/12 10:47:36;;;;;;;5.15;1.40;;;;;;;9.18;65.84;99443.00;10300145;28;20042;-66
2023/01/12 10:52:39;;;;;;;3.88;1.23;;;;;;;9.24;65.99;99441.81;10275161;28;20042;-66
2023/01/12 10:57:43;;;;;;;4.38;1.30;;;;;;;9.29;65.66;99432.75;10286635;28;20058;-66
2023/01/12 11:02:45;;;;;;;4.65;1.70;;;;;;;9.41;65.28;99449.41;10265284;28;20073;-65
2023/01/12 11:07:48;;;;;;;5.60;2.20;;;;;;;9.51;64.70;99425.25;10296789;28;20050;-66
2023/01/12 11:13:23;;;;;;;4.20;1.35;;;;;;;9.51;64.37;99438.31;10289721;28;20058;-66
2023/01/12 11:18:51;;;;;;;6.85;1.50;;;;;;;9.38;64.35;99423.53;10272761;28;20468;-66
2023/01/12 11:24:02;;;;;;;4.65;1.40;;;;;;;9.39;64.95;99428.63;10282601;28;20046;-65
2023/01/12 11:29:44;;;;;;;4.78;1.40;;;;;;;9.47;64.25;99429.00;10294718;28;20470;-66
2023/01/12 11:35:07;;;;;;;4.40;1.30;;;;;;;9.50;63.83;99417.53;10282259;28;20093;-66
2023/01/12 11:40:40;;;;;;;5.70;1.90;;;;;;;9.64;64.22;99423.56;10278369;28;20050;-66
2023/01/12 11:45:52;;;;;;;5.72;2.00;;;;;;;9.63;64.50;99419.25;10264532;28;20608;-66
2023/01/12 11:50:56;;;;;;;3.40;1.15;;;;;;;9.60;64.70;99409.00;10260158;28;20471;-66
2023/01/12 11:56:10;;;;;;;4.35;1.73;;;;;;;9.67;64.46;99403.44;10254955;28;20485;-66
2023/01/12 12:01:39;;;;;;;6.85;1.70;;;;;;;9.58;64.36;99400.41;10282066;28;20058;-66
2023/01/12 12:06:50;;;;;;;4.57;1.80;;;;;;;9.65;64.54;99409.53;10259885;28;20520;-66
2023/01/12 12:12:08;;;;;;;;;;;;;;;9.33;65.19;99399.47;10260185;28;20059;-66
2023/01/12 12:17:35;;;;;;;7.57;2.00;;;;;;;9.62;64.74;99401.94;10257523;28;19922;-66
2023/01/12 12:22:59;;;;;;;4.05;1.40;;;;;;;9.57;65.09;99393.53;10260349;28;20459;-66
2023/01/12 12:28:13;;;;;;;5.82;1.40;;;;;;;9.73;65.38;99387.38;10271975;28;20388;-66
2023/01/12 12:33:17;;;;;;;2.78;1.17;;;;;;;9.78;65.22;99398.34;10267199;28;20043;-66
2023/01/12 12:38:21;;;;;;;2.83;1.10;;;;;;;9.68;65.21;99392.88;10268818;28;20305;-66
2023/01/12 12:49:08;;;;;;;3.75;1.00;;;;;;;9.72;65.15;99385.69;10277837;28;20046;-66
2023/01/12 12:54:16;;;;;;;2.22;0.82;;;;;;;9.56;66.00;99381.41;10266112;28;20731;-65
2023/01/12 12:59:32;;;;;;;2.42;1.00;;;;;;;9.50;66.28;99384.41;10265450;28;20062;-66
2023/01/12 13:04:56;;;;;;;1.60;0.80;;;;;;;9.46;66.08;99364.66;10273865;28;20046;-66
2023/01/12 13:10:14;;;;;;;2.67;1.15;;;;;;;9.48;66.04;99370.63;10269066;28;20705;-66
2023/01/12 13:15:21;;;;;;;4.15;1.00;;;;;;;9.54;66.83;99367.63;10271009;28;20065;-66
2023/01/12 13:20:35;;;;;;;2.47;1.08;;;;;;;9.46;67.16;99375.09;10267120;28;20478;-66
2023/01/12 13:25:36;;;;;;;5.13;2.65;;;;;;;9.28;67.70;99372.84;10264501;28;20042;-66
2023/01/12 13:30:52;;;;;;;2.97;1.38;;;;;;;9.21;68.35;99375.00;10273944;28;20211;-66
2023/01/12 13:36:07;;;;;;;3.92;1.80;;;;;;;9.26;67.81;99370.31;10268612;28;20054;-66
2023/01/12 13:41:15;;;;;;;4.30;1.77;;;;;;;9.40;67.49;99370.28;10261297;28;20132;-66
2023/01/12 13:46:27;;;;;;;1.83;1.10;;;;;;;9.37;67.78;99375.69;10268095;28;20057;-66
2023/01/12 13:51:38;;;;;;;3.20;1.10;;;;;;;9.33;67.83;99374.22;10263621;28;20054;-66
2023/01/12 13:56:40;;;;;;;2.65;1.30;;;;;;;9.41;67.50;99364.13;10264802;28;20746;-66
2023/01/12 14:01:44;;;;;;;2.88;1.25;;;;;;;9.48;67.15;99365.41;10267443;28;20165;-66
2023/01/12 14:06:47;;;;;;;2.03;1.08;;;;;;;9.55;67.06;99371.91;10267304;28;20181;-66
2023/01/12 14:12:17;;;;;;;2.40;0.95;;;;;;;9.58;66.18;99368.28;10272162;28;20055;-66
2023/01/12 14:22:47;;;;;;;5.32;3.28;;;;;;;9.73;65.97;99366.47;10296055;28;20138;-65
2023/01/12 14:27:54;;;;;;;3.15;1.90;;;;;;;9.84;65.36;99349.16;10277928;28;20053;-65
2023/01/12 14:32:56;;;;;;;6.20;3.08;;;;;;;9.78;65.44;99365.22;10269095;28;20057;-65
2023/01/12 14:38:00;;;;;;;3.92;1.90;;;;;;;9.79;65.21;99360.84;10267335;28;20053;-65
2023/01/12 14:48:28;;;;;;;3.40;1.60;;;;;;;9.73;65.15;99350.81;10279240;28;20054;-65
2023/01/12 14:53:38;;;;;;;3.85;2.10;;;;;;;9.64;64.48;99355.66;10268966;28;20512;-65
2023/01/12 14:58:40;;;;;;;5.43;1.70;;;;;;;9.88;64.57;99348.03;10283363;28;20054;-65
2023/01/12 15:03:45;;;;;;;4.03;1.92;;;;;;;9.82;64.51;99358.88;10267120;28;20410;-65
2023/01/12 15:08:59;;;;;;;2.58;1.50;;;;;;;9.68;64.46;99352.88;10287467;28;20046;-65
2023/01/12 15:14:03;;;;;;;2.53;1.20;;;;;;;9.82;64.48;99339.75;10269331;28;20053;-65
2023/01/12 15:29:48;;;;;;;2.75;0.90;;;;;;;9.92;63.88;99333.81;10277549;28;20042;-66
2023/01/12 15:34:49;;;;;;;1.55;0.63;;;;;;;9.72;63.72;99347.34;10265436;28;20065;-65
2023/01/12 15:39:51;;;;;;;2.53;1.08;;;;;;;9.93;63.54;99327.66;10259498;28;20053;-65
2023/01/12 15:44:53;;;;;;;0.88;0.70;;;;;;;9.96;63.30;99331.84;10265351;28;20051;-65
2023/01/12 15:49:55;;;;;;;2.40;1.20;;;;;;;9.80;63.25;99325.94;10266219;28;20059;-65
2023/01/12 15:54:56;;;;;;;2.67;1.65;;;;;;;10.00;63.06;99325.47;10265416;28;21194;-65
2023/01/12 15:59:58;;;;;;;1.17;0.68;;;;;;;9.88;63.15;99310.63;10278198;28;20046;-65
2023/01/12 16:05:01;;;;;;;1.80;0.82;;;;;;;9.94;63.15;99310.19;10265587;28;20205;-65
2023/01/12 16:10:04;;;;;;;1.67;0.90;;;;;;;9.81;63.17;99304.13;10281730;28;21096;-65
2023/01/12 16:15:18;;;;;;;5.05;0.77;;;;;;;9.76;63.08;99312.28;10272528;28;20143;-65
2023/01/12 16:20:20;;;;;;;1.58;0.75;;;;;;;9.70;63.56;99309.22;10280411;28;20153;-65
2023/01/12 16:25:22;;;;;;;4.45;0.90;;;;;;;9.84;63.17;99303.91;10286640;28;20051;-66
2023/01/12 16:30:23;;;;;;;2.05;0.80;;;;;;;9.87;62.87;99308.97;10275141;28;20154;-65
2023/01/12 16:35:25;;;;;;;2.83;1.00;;;;;;;9.89;62.77;99309.69;10295552;28;20054;-65
2023/01/12 16:40:27;;;;;;;1.13;0.70;;;;;;;10.02;62.52;99303.53;10284336;28;20046;-65
2023/01/12 16:45:29;;;;;;;1.65;0.85;;;;;;;9.97;62.48;99294.34;10282445;28;20495;-65
2023/01/12 16:50:30;;;;;;;4.25;1.10;;;;;;;9.95;62.43;99304.06;10292009;28;20066;-64
2023/01/12 16:55:33;;;;;;;2.60;0.77;;;;;;;9.97;62.46;99303.00;10291206;28;20418;-64
2023/01/12 17:00:37;;;;;;;2.45;1.38;;;;;;;9.94;62.54;99292.75;10277265;28;20430;-65
2023/01/12 17:05:41;;;;;;;6.32;3.03;;;;;;;9.86;62.66;99289.81;10290945;28;20467;-65
2023/01/12 17:10:42;;;;;;;4.65;2.92;;;;;;;9.87;62.69;99290.69;10275809;28;20065;-65
2023/01/12 17:15:45;;;;;;;8.00;5.05;;;;;;;9.78;62.69;99286.06;10283270;28;20558;-64
2023/01/12 17:20:47;;;;;;;4.25;2.50;;;;;;;9.91;62.52;99294.75;10292947;28;20057;-65
2023/01/12 17:25:48;;;;;;;5.75;2.30;;;;;;;9.73;62.55;99303.81;10293642;28;20057;-65
2023/01/12 17:30:50;;;;;;;6.55;4.25;;;;;;;9.90;62.41;99306.97;10275690;28;20089;-65
2023/01/12 17:35:52;;;;;;;2.25;1.30;;;;;;;9.91;62.62;99307.81;10276123;28;20051;-65
2023/01/12 17:40:53;;;;;;;2.63;1.02;;;;;;;9.96;62.28;99305.72;10280802;28;20771;-65
2023/01/12 17:45:55;;;;;;;5.78;2.80;;;;;;;9.95;62.42;99311.88;10274556;28;20403;-64
2023/01/12 17:50:57;;;;;;;3.90;2.10;;;;;;;10.01;62.27;99314.91;10288893;28;20102;-64
2023/01/12 17:56:01;;;;;;;2.88;1.27;;;;;;;10.12;62.43;99327.25;10285390;28;20057;-64
2023/01/12 18:01:10;;;;;;;2.53;1.45;;;;;;;10.03;63.09;99333.09;10292898;28;20047;-65
2023/01/12 18:06:12;;;;;;;3.80;1.98;;;;;;;9.95;63.60;99335.41;10283134;28;20502;-65
2023/01/12 18:11:27;;;;;;;2.22;0.93;;;;;;;9.81;64.34;99336.28;10286294;28;20046;-64
2023/01/12 18:16:29;;;;;;;2.67;1.10;;;;;;;9.79;64.86;99332.94;10287712;28;20073;-64
2023/01/12 18:21:31;;;;;;;2.85;1.25;;;;;;;9.79;65.08;99329.53;10289663;28;20058;-64
2023/01/12 18:26:34;;;;;;;2.05;0.95;;;;;;;9.79;65.06;99314.66;10276426;28;20077;-65
2023/01/12 18:31:36;;;;;;;3.20;1.20;;;;;;;9.65;65.54;99314.72;10283796;28;20495;-65
2023/01/12 18:36:40;;;;;;;3.17;1.20;;;;;;;9.72;65.43;99309.97;10295768;28;20443;-64
2023/01/12 18:57:42;;;;;;;2.70;0.93;;;;;;;9.60;65.85;99293.31;10303169;28;20046;-65
2023/01/12 19:02:44;;;;;;;3.35;1.30;;;;;;;9.77;65.49;99294.84;10283081;28;20605;-64
2023/01/12 19:17:25;;;;;;;3.47;1.80;;;;;;;9.66;66.03;99295.53;10275386;28;20158;-65
2023/01/12 19:18:13;;;;;;;2.55;1.60;;;;;;;9.68;66.11;99287.59;10285076;28;20104;-64
2023/01/12 19:28:35;;;;;;;4.15;1.55;;;;;;;9.67;66.27;99275.50;10270247;28;20047;-65
2023/01/12 19:33:37;;;;;;;2.97;1.25;;;;;;;9.71;66.35;99276.97;10286553;28;20046;-64
2023/01/12 19:38:42;;;;;;;2.35;1.13;;;;;;;9.63;66.63;99273.03;10295032;28;20050;-65
2023/01/12 19:43:47;;;;;;;3.28;1.50;;;;;;;9.57;67.03;99277.81;10281362;28;20066;-65
2023/01/12 19:48:48;;;;;;;2.97;1.20;;;;;;;9.60;67.04;99268.03;10278268;28;20241;-64
2023/01/12 19:53:50;;;;;;;4.53;2.55;;;;;;;9.67;66.86;99267.66;10284669;28;20051;-65
2023/01/12 19:58:53;;;;;;;14.82;8.05;;;;;;;9.61;66.99;99256.66;10283073;28;20218;-65
2023/01/12 20:03:54;;;;;;;8.55;4.72;;;;;;;9.62;67.04;99255.72;10286433;28;20051;-64
2023/01/12 20:08:56;;;;;;;5.72;2.25;;;;;;;9.53;67.15;99258.94;10285584;28;20043;-65
2023/01/12 20:13:58;;;;;;;3.28;1.80;;;;;;;9.52;67.63;99254.63;10293565;28;20046;-65
2023/01/12 20:19:02;;;;;;;3.72;1.27;;;;;;;9.48;67.88;99252.34;10287397;28;20054;-64
2023/01/12 20:24:05;;;;;;;7.03;1.60;;;;;;;9.49;67.81;99254.84;10286553;28;20381;-64
2023/01/12 20:29:07;;;;;;;6.20;2.05;;;;;;;9.50;67.66;99242.63;10285975;28;20054;-65
2023/01/12 20:34:10;;;;;;;5.40;1.70;;;;;;;9.50;67.96;99230.41;10288580;28;20053;-65
2023/01/12 20:39:13;;;;;;;5.10;2.25;;;;;;;9.52;67.47;99238.97;10293790;28;20050;-64
2023/01/12 20:44:16;;;;;;;5.95;1.70;;;;;;;9.56;67.45;99242.22;10290562;28;20050;-65
2023/01/12 20:49:17;;;;;;;10.13;3.90;;;;;;;9.58;67.24;99227.31;10285728;28;20050;-65
2023/01/12 20:54:19;;;;;;;5.85;2.60;;;;;;;9.64;66.76;99206.00;10283045;28;20421;-65
2023/01/12 20:59:21;;;;;;;3.55;1.30;;;;;;;9.63;66.64;99205.16;10280989;28;20469;-65
2023/01/12 21:04:23;;;;;;;4.30;1.48;;;;;;;9.73;66.39;99201.97;10281792;28;20066;-65
2023/01/12 21:09:24;;;;;;;4.63;1.30;;;;;;;9.71;66.08;99202.06;10287456;28;20054;-65
2023/01/12 21:14:27;;;;;;;3.67;1.20;;;;;;;9.76;66.13;99191.31;10268006;28;20046;-65
2023/01/12 21:19:28;;;;;;;3.63;1.10;;;;;;;9.86;65.93;99195.81;10279972;28;20065;-64
2023/01/12 21:24:31;;;;;;;5.30;1.10;;;;;;;9.77;65.84;99187.78;10263810;28;20074;-64
2023/01/12 21:29:33;;;;;;;1.80;1.10;;;;;;;9.70;65.56;99168.22;10278563;28;20050;-64
2023/01/12 21:34:34;;;;;;;1.23;0.80;;;;;;;9.81;65.00;99178.78;10279226;28;20074;-64
2023/01/12 21:39:36;;;;;;;2.15;0.93;;;;;;;9.72;64.89;99182.00;10266075;28;20579;-64
2023/01/12 21:44:37;;;;;;;2.25;0.90;;;;;;;9.82;64.85;99172.63;10268032;28;20569;-64
2023/01/12 21:49:39;;;;;;;1.77;0.80;;;;;;;9.85;64.46;99160.16;10267195;28;20058;-64
2023/01/12 21:54:41;;;;;;;2.17;0.85;;;;;;;9.85;64.04;99159.38;10264506;28;20066;-64
2023/01/12 21:59:42;;;;;;;4.80;2.30;;;;;;;9.89;64.54;99160.81;10281061;28;20047;-64
2023/01/12 22:04:44;;;;;;;3.13;1.65;;;;;;;9.98;64.05;99153.16;10261705;28;20042;-64
2023/01/12 22:09:46;;;;;;;2.80;1.20;;;;;;;9.94;64.25;99162.16;10269163;28;20511;-64
2023/01/12 22:14:48;;;;;;;2.60;1.05;;;;;;;9.86;64.01;99146.19;10270448;28;20045;-65
2023/01/12 22:19:49;;;;;;;3.53;1.15;;;;;;;9.97;63.76;99140.22;10265882;28;20055;-64
2023/01/12 22:24:51;;;;;;;2.60;1.10;;;;;;;10.07;63.74;99151.69;10264006;28;20046;-64
2023/01/12 22:29:52;;;;;;;4.05;1.05;;;;;;;10.06;63.66;99155.25;10269364;28;20061;-64
2023/01/12 22:34:57;;;;;;;3.97;0.90;;;;;;;10.08;63.56;99140.28;10264083;28;20054;-64
2023/01/12 22:39:59;;;;;;;2.05;1.00;;;;;;;9.98;63.78;99153.16;10263958;28;20065;-64
2023/01/12 22:45:00;;;;;;;1.38;0.60;;;;;;;9.97;63.77;99148.06;10264211;28;20050;-64
2023/01/12 22:50:03;;;;;;;2.92;0.88;;;;;;;9.96;63.93;99139.38;10276287;28;20043;-65
2023/01/12 22:55:05;;;;;;;2.70;0.80;;;;;;;10.11;63.69;99135.72;10267164;28;20043;-64
2023/01/12 23:00:13;;;;;;;2.88;0.80;;;;;;;10.08;63.76;99145.50;10285796;28;20506;-63
2023/01/12 23:05:16;;;;;;;2.40;1.00;;;;;;;10.09;63.84;99145.44;10276017;28;20046;-64
2023/01/12 23:10:18;;;;;;;1.73;0.80;;;;;;;10.07;63.98;99141.25;10290057;28;20406;-64
2023/01/12 23:15:20;;;;;;;1.73;0.85;;;;;;;10.08;63.76;99138.53;10272735;28;20047;-64
2023/01/12 23:20:21;;;;;;;1.67;0.70;;;;;;;10.09;63.86;99129.75;10260118;28;20414;-64
2023/01/12 23:25:23;;;;;;;3.65;0.80;;;;;;;10.09;64.15;99128.91;10271230;28;20314;-64
2023/01/12 23:30:29;;;;;;;4.70;0.90;;;;;;;10.07;64.36;99131.66;10262607;28;20035;-64
2023/01/12 23:35:39;;;;;;;1.90;0.85;;;;;;;10.07;64.46;99122.97;10278351;28;20431;-65
2023/01/12 23:40:41;;;;;;;3.40;0.80;;;;;;;10.03;64.58;99116.28;10269760;28;20071;-64
2023/01/12 23:45:42;;;;;;;2.22;0.80;;;;;;;9.99;64.66;99117.44;10267362;28;20422;-64
2023/01/12 23:50:44;;;;;;;2.33;1.10;;;;;;;10.16;63.96;99106.63;10265144;28;20047;-64
2023/01/12 23:55:46;;;;;;;1.92;0.90;;;;;;;10.18;64.09;99107.34;10264271;28;20065;-64
